Marshall Hall, Maryland
Current Conditions -  °F | °C
As of 7:58 AM on Thursday 30 Oct 2014 (Local Time) from KDAA Reporting Station
Clear Clear  
Wind Chill: 44°   Ceiling: Unl
Heat Index: 44°   Visibility: 10mi
Dew Point: 42°   Wind: 3mph
Humidity: 93%   Direction: 300°WNW
Pressure: 30.05"   Gusts: NA
Location:  38.6499°N, 77.0865°W
Report Text: KDAA 301158Z AUTO 30003KT 10SM CLR 07/06 A3005 RMK AO2 SLP179 60001 70006 T00690058 10077 20047 52012
Loading
Personal Weather Stations






























Interactive Weather Map
Tropical Storm Tracking
New forecast layout! Learn more

10-Day Weather Forecast

Advertisements
Track Severe Weather on mobile